sensor_id;sensor_type;location;lat;lon;timestamp;P1;durP1;ratioP1;P2;durP2;ratioP2
50647;SDS011;36617;52.002;6.034;2023-02-15T00:00:51;8.98;;;6.80;;
50647;SDS011;36617;52.002;6.034;2023-02-15T00:03:19;8.95;;;6.68;;
50647;SDS011;36617;52.002;6.034;2023-02-15T00:05:44;9.13;;;6.70;;
50647;SDS011;36617;52.002;6.034;2023-02-15T00:08:10;8.67;;;6.50;;
50647;SDS011;36617;52.002;6.034;2023-02-15T00:10:35;9.57;;;7.00;;
50647;SDS011;36617;52.002;6.034;2023-02-15T00:13:00;9.60;;;7.07;;
50647;SDS011;36617;52.002;6.034;2023-02-15T00:15:25;9.73;;;6.93;;
50647;SDS011;36617;52.002;6.034;2023-02-15T00:17:50;9.23;;;6.60;;
50647;SDS011;36617;52.002;6.034;2023-02-15T00:20:16;8.90;;;6.80;;
50647;SDS011;36617;52.002;6.034;2023-02-15T00:22:41;9.23;;;6.97;;
50647;SDS011;36617;52.002;6.034;2023-02-15T00:25:06;9.43;;;6.78;;
50647;SDS011;36617;52.002;6.034;2023-02-15T00:27:32;9.67;;;6.90;;
50647;SDS011;36617;52.002;6.034;2023-02-15T00:29:57;8.93;;;6.60;;
50647;SDS011;36617;52.002;6.034;2023-02-15T00:32:23;9.27;;;7.00;;
50647;SDS011;36617;52.002;6.034;2023-02-15T00:34:48;10.10;;;7.20;;
50647;SDS011;36617;52.002;6.034;2023-02-15T00:37:13;10.03;;;7.10;;
50647;SDS011;36617;52.002;6.034;2023-02-15T00:39:38;9.13;;;6.87;;
50647;SDS011;36617;52.002;6.034;2023-02-15T00:42:03;9.37;;;6.70;;
50647;SDS011;36617;52.002;6.034;2023-02-15T00:44:29;9.00;;;6.80;;
50647;SDS011;36617;52.002;6.034;2023-02-15T00:46:54;9.50;;;6.80;;
50647;SDS011;36617;52.002;6.034;2023-02-15T00:49:19;9.17;;;6.87;;
50647;SDS011;36617;52.002;6.034;2023-02-15T00:51:44;9.03;;;6.93;;
50647;SDS011;36617;52.002;6.034;2023-02-15T00:54:09;9.73;;;6.73;;
50647;SDS011;36617;52.002;6.034;2023-02-15T00:56:35;8.97;;;6.83;;
50647;SDS011;36617;52.002;6.034;2023-02-15T00:59:00;9.13;;;6.70;;
50647;SDS011;36617;52.002;6.034;2023-02-15T01:01:25;9.17;;;6.60;;
50647;SDS011;36617;52.002;6.034;2023-02-15T01:03:51;9.77;;;6.70;;
50647;SDS011;36617;52.002;6.034;2023-02-15T01:06:16;9.10;;;6.60;;
50647;SDS011;36617;52.002;6.034;2023-02-15T01:08:42;10.50;;;7.07;;
50647;SDS011;36617;52.002;6.034;2023-02-15T01:11:09;8.93;;;6.43;;
50647;SDS011;36617;52.002;6.034;2023-02-15T01:13:34;8.77;;;6.65;;
50647;SDS011;36617;52.002;6.034;2023-02-15T01:16:00;9.03;;;6.40;;
50647;SDS011;36617;52.002;6.034;2023-02-15T01:18:25;8.20;;;6.30;;
50647;SDS011;36617;52.002;6.034;2023-02-15T01:20:51;9.38;;;7.03;;
50647;SDS011;36617;52.002;6.034;2023-02-15T01:23:16;8.43;;;6.10;;
50647;SDS011;36617;52.002;6.034;2023-02-15T01:25:41;10.67;;;6.50;;
50647;SDS011;36617;52.002;6.034;2023-02-15T01:28:06;9.23;;;6.23;;
50647;SDS011;36617;52.002;6.034;2023-02-15T01:30:32;8.47;;;6.03;;
50647;SDS011;36617;52.002;6.034;2023-02-15T01:32:57;9.87;;;6.00;;
50647;SDS011;36617;52.002;6.034;2023-02-15T01:35:22;9.10;;;6.03;;
50647;SDS011;36617;52.002;6.034;2023-02-15T01:37:48;8.77;;;5.93;;
50647;SDS011;36617;52.002;6.034;2023-02-15T01:40:15;9.70;;;5.97;;
50647;SDS011;36617;52.002;6.034;2023-02-15T01:42:40;9.07;;;5.97;;
50647;SDS011;36617;52.002;6.034;2023-02-15T01:47:54;9.30;;;5.72;;
50647;SDS011;36617;52.002;6.034;2023-02-15T01:50:32;8.98;;;5.80;;
50647;SDS011;36617;52.002;6.034;2023-02-15T01:52:59;10.63;;;7.57;;
50647;SDS011;36617;52.002;6.034;2023-02-15T01:55:27;10.77;;;7.30;;
50647;SDS011;36617;52.002;6.034;2023-02-15T01:57:53;13.15;;;10.15;;
50647;SDS011;36617;52.002;6.034;2023-02-15T02:00:19;20.47;;;14.97;;
50647;SDS011;36617;52.002;6.034;2023-02-15T02:02:45;25.20;;;18.47;;
50647;SDS011;36617;52.002;6.034;2023-02-15T02:05:11;46.30;;;32.10;;
50647;SDS011;36617;52.002;6.034;2023-02-15T02:07:37;59.10;;;37.97;;
50647;SDS011;36617;52.002;6.034;2023-02-15T02:10:04;65.33;;;41.90;;
50647;SDS011;36617;52.002;6.034;2023-02-15T02:12:30;66.72;;;42.90;;
50647;SDS011;36617;52.002;6.034;2023-02-15T02:14:55;64.77;;;41.53;;
50647;SDS011;36617;52.002;6.034;2023-02-15T02:17:32;72.20;;;45.70;;
50647;SDS011;36617;52.002;6.034;2023-02-15T02:27:56;117.57;;;77.43;;
50647;SDS011;36617;52.002;6.034;2023-02-15T02:30:35;109.53;;;72.75;;
50647;SDS011;36617;52.002;6.034;2023-02-15T02:35:38;109.40;;;73.63;;
50647;SDS011;36617;52.002;6.034;2023-02-15T02:38:18;112.07;;;73.43;;
50647;SDS011;36617;52.002;6.034;2023-02-15T02:40:48;104.43;;;69.78;;
50647;SDS011;36617;52.002;6.034;2023-02-15T02:48:40;98.07;;;64.57;;
50647;SDS011;36617;52.002;6.034;2023-02-15T02:51:05;99.30;;;65.33;;
50647;SDS011;36617;52.002;6.034;2023-02-15T02:53:30;92.07;;;61.40;;
50647;SDS011;36617;52.002;6.034;2023-02-15T02:55:58;94.57;;;61.25;;
50647;SDS011;36617;52.002;6.034;2023-02-15T03:01:06;80.80;;;55.67;;
50647;SDS011;36617;52.002;6.034;2023-02-15T03:03:34;83.30;;;56.28;;
50647;SDS011;36617;52.002;6.034;2023-02-15T03:06:02;80.80;;;54.67;;
50647;SDS011;36617;52.002;6.034;2023-02-15T03:08:31;78.78;;;53.85;;
50647;SDS011;36617;52.002;6.034;2023-02-15T03:10:59;77.28;;;53.22;;
50647;SDS011;36617;52.002;6.034;2023-02-15T03:13:25;75.37;;;52.27;;
50647;SDS011;36617;52.002;6.034;2023-02-15T03:15:51;73.88;;;50.65;;
50647;SDS011;36617;52.002;6.034;2023-02-15T03:18:37;74.75;;;49.83;;
50647;SDS011;36617;52.002;6.034;2023-02-15T03:21:02;70.30;;;49.97;;
50647;SDS011;36617;52.002;6.034;2023-02-15T03:23:29;66.10;;;46.58;;
50647;SDS011;36617;52.002;6.034;2023-02-15T03:25:59;66.63;;;47.00;;
50647;SDS011;36617;52.002;6.034;2023-02-15T03:28:27;63.78;;;45.28;;
50647;SDS011;36617;52.002;6.034;2023-02-15T03:30:54;65.43;;;46.00;;
50647;SDS011;36617;52.002;6.034;2023-02-15T03:33:20;63.83;;;43.80;;
50647;SDS011;36617;52.002;6.034;2023-02-15T03:38:34;59.22;;;41.58;;
50647;SDS011;36617;52.002;6.034;2023-02-15T03:41:01;57.30;;;40.90;;
50647;SDS011;36617;52.002;6.034;2023-02-15T03:46:06;52.40;;;38.20;;
50647;SDS011;36617;52.002;6.034;2023-02-15T03:48:37;56.33;;;38.53;;
50647;SDS011;36617;52.002;6.034;2023-02-15T03:51:05;52.67;;;37.35;;
50647;SDS011;36617;52.002;6.034;2023-02-15T03:53:51;51.47;;;36.30;;
50647;SDS011;36617;52.002;6.034;2023-02-15T03:56:17;48.87;;;35.13;;
50647;SDS011;36617;52.002;6.034;2023-02-15T03:58:42;49.27;;;34.77;;
50647;SDS011;36617;52.002;6.034;2023-02-15T04:06:53;45.38;;;32.28;;
50647;SDS011;36617;52.002;6.034;2023-02-15T04:09:18;42.20;;;30.70;;
50647;SDS011;36617;52.002;6.034;2023-02-15T04:12:02;43.42;;;30.88;;
50647;SDS011;36617;52.002;6.034;2023-02-15T04:14:28;42.53;;;30.37;;
50647;SDS011;36617;52.002;6.034;2023-02-15T04:17:11;41.03;;;29.97;;
50647;SDS011;36617;52.002;6.034;2023-02-15T04:19:37;40.97;;;29.07;;
50647;SDS011;36617;52.002;6.034;2023-02-15T04:22:20;39.13;;;28.23;;
50647;SDS011;36617;52.002;6.034;2023-02-15T04:25:04;37.70;;;26.77;;
50647;SDS011;36617;52.002;6.034;2023-02-15T04:27:40;37.42;;;26.95;;
50647;SDS011;36617;52.002;6.034;2023-02-15T04:30:06;37.28;;;27.02;;
50647;SDS011;36617;52.002;6.034;2023-02-15T04:32:31;36.17;;;26.03;;
50647;SDS011;36617;52.002;6.034;2023-02-15T04:34:56;35.27;;;25.67;;
50647;SDS011;36617;52.002;6.034;2023-02-15T04:37:22;34.13;;;24.27;;
50647;SDS011;36617;52.002;6.034;2023-02-15T04:39:47;33.23;;;23.43;;
50647;SDS011;36617;52.002;6.034;2023-02-15T04:42:12;33.97;;;24.40;;
50647;SDS011;36617;52.002;6.034;2023-02-15T04:44:37;31.97;;;23.17;;
50647;SDS011;36617;52.002;6.034;2023-02-15T04:47:02;31.20;;;22.97;;
50647;SDS011;36617;52.002;6.034;2023-02-15T04:49:27;31.53;;;22.43;;
50647;SDS011;36617;52.002;6.034;2023-02-15T04:51:53;31.53;;;22.97;;
50647;SDS011;36617;52.002;6.034;2023-02-15T04:54:18;32.40;;;22.67;;
50647;SDS011;36617;52.002;6.034;2023-02-15T04:56:43;29.90;;;21.87;;
50647;SDS011;36617;52.002;6.034;2023-02-15T04:59:11;28.63;;;20.30;;
50647;SDS011;36617;52.002;6.034;2023-02-15T05:01:37;28.33;;;20.77;;
50647;SDS011;36617;52.002;6.034;2023-02-15T05:04:02;28.33;;;20.50;;
50647;SDS011;36617;52.002;6.034;2023-02-15T05:06:27;27.50;;;19.53;;
50647;SDS011;36617;52.002;6.034;2023-02-15T05:08:53;27.45;;;19.38;;
50647;SDS011;36617;52.002;6.034;2023-02-15T05:11:18;26.23;;;19.03;;
50647;SDS011;36617;52.002;6.034;2023-02-15T05:13:43;26.07;;;18.33;;
50647;SDS011;36617;52.002;6.034;2023-02-15T05:16:08;24.83;;;18.40;;
50647;SDS011;36617;52.002;6.034;2023-02-15T05:18:33;22.80;;;16.97;;
50647;SDS011;36617;52.002;6.034;2023-02-15T05:20:59;24.43;;;17.60;;
50647;SDS011;36617;52.002;6.034;2023-02-15T05:23:24;23.60;;;16.93;;
50647;SDS011;36617;52.002;6.034;2023-02-15T05:25:49;23.80;;;16.93;;
50647;SDS011;36617;52.002;6.034;2023-02-15T05:28:34;22.45;;;16.17;;
50647;SDS011;36617;52.002;6.034;2023-02-15T05:33:28;21.83;;;15.90;;
50647;SDS011;36617;52.002;6.034;2023-02-15T05:35:53;22.33;;;15.48;;
50647;SDS011;36617;52.002;6.034;2023-02-15T05:38:18;21.23;;;15.43;;
50647;SDS011;36617;52.002;6.034;2023-02-15T05:40:43;21.70;;;15.10;;
50647;SDS011;36617;52.002;6.034;2023-02-15T05:43:09;22.13;;;15.13;;
50647;SDS011;36617;52.002;6.034;2023-02-15T05:45:34;19.43;;;14.43;;
50647;SDS011;36617;52.002;6.034;2023-02-15T05:47:59;20.03;;;14.23;;
50647;SDS011;36617;52.002;6.034;2023-02-15T05:50:25;20.40;;;14.30;;
50647;SDS011;36617;52.002;6.034;2023-02-15T05:52:50;19.27;;;13.68;;
50647;SDS011;36617;52.002;6.034;2023-02-15T05:55:16;18.27;;;13.07;;
50647;SDS011;36617;52.002;6.034;2023-02-15T05:57:41;17.63;;;12.30;;
50647;SDS011;36617;52.002;6.034;2023-02-15T06:00:07;17.87;;;12.70;;
50647;SDS011;36617;52.002;6.034;2023-02-15T06:02:33;18.17;;;12.90;;
50647;SDS011;36617;52.002;6.034;2023-02-15T06:04:59;17.83;;;13.17;;
50647;SDS011;36617;52.002;6.034;2023-02-15T06:07:24;17.50;;;12.87;;
50647;SDS011;36617;52.002;6.034;2023-02-15T06:09:49;16.47;;;12.23;;
50647;SDS011;36617;52.002;6.034;2023-02-15T06:12:14;15.93;;;11.80;;
50647;SDS011;36617;52.002;6.034;2023-02-15T06:14:40;16.87;;;12.30;;
50647;SDS011;36617;52.002;6.034;2023-02-15T06:17:05;16.20;;;11.77;;
50647;SDS011;36617;52.002;6.034;2023-02-15T06:19:31;16.55;;;12.15;;
50647;SDS011;36617;52.002;6.034;2023-02-15T06:21:56;16.27;;;11.20;;
50647;SDS011;36617;52.002;6.034;2023-02-15T06:24:21;17.03;;;11.77;;
50647;SDS011;36617;52.002;6.034;2023-02-15T06:26:46;15.20;;;10.80;;
50647;SDS011;36617;52.002;6.034;2023-02-15T06:29:12;15.70;;;11.07;;
50647;SDS011;36617;52.002;6.034;2023-02-15T06:31:37;15.23;;;11.00;;
50647;SDS011;36617;52.002;6.034;2023-02-15T06:34:02;15.50;;;10.47;;
50647;SDS011;36617;52.002;6.034;2023-02-15T06:36:27;15.17;;;10.60;;
50647;SDS011;36617;52.002;6.034;2023-02-15T06:38:53;13.50;;;10.07;;
50647;SDS011;36617;52.002;6.034;2023-02-15T06:41:18;14.33;;;10.43;;
50647;SDS011;36617;52.002;6.034;2023-02-15T06:43:43;15.13;;;10.30;;
50647;SDS011;36617;52.002;6.034;2023-02-15T06:46:09;14.20;;;10.20;;
50647;SDS011;36617;52.002;6.034;2023-02-15T06:48:34;14.47;;;10.80;;
50647;SDS011;36617;52.002;6.034;2023-02-15T06:50:59;14.23;;;10.07;;
50647;SDS011;36617;52.002;6.034;2023-02-15T06:53:24;13.73;;;9.30;;
50647;SDS011;36617;52.002;6.034;2023-02-15T06:55:49;13.07;;;9.80;;
50647;SDS011;36617;52.002;6.034;2023-02-15T06:58:15;13.13;;;9.37;;
50647;SDS011;36617;52.002;6.034;2023-02-15T07:00:40;13.23;;;9.27;;
50647;SDS011;36617;52.002;6.034;2023-02-15T07:03:05;12.17;;;8.87;;
50647;SDS011;36617;52.002;6.034;2023-02-15T07:05:32;12.97;;;9.20;;
50647;SDS011;36617;52.002;6.034;2023-02-15T07:07:57;12.40;;;9.30;;
50647;SDS011;36617;52.002;6.034;2023-02-15T07:10:23;11.83;;;8.67;;
50647;SDS011;36617;52.002;6.034;2023-02-15T07:12:48;12.87;;;9.00;;
50647;SDS011;36617;52.002;6.034;2023-02-15T07:15:14;12.30;;;9.07;;
50647;SDS011;36617;52.002;6.034;2023-02-15T07:17:40;12.63;;;8.93;;
50647;SDS011;36617;52.002;6.034;2023-02-15T07:20:06;12.77;;;9.20;;
50647;SDS011;36617;52.002;6.034;2023-02-15T07:22:32;11.90;;;8.60;;
50647;SDS011;36617;52.002;6.034;2023-02-15T07:24:58;12.32;;;9.18;;
50647;SDS011;36617;52.002;6.034;2023-02-15T07:27:24;12.83;;;9.07;;
50647;SDS011;36617;52.002;6.034;2023-02-15T07:29:49;12.43;;;8.60;;
50647;SDS011;36617;52.002;6.034;2023-02-15T07:32:14;11.40;;;8.57;;
50647;SDS011;36617;52.002;6.034;2023-02-15T07:34:40;12.30;;;8.90;;
50647;SDS011;36617;52.002;6.034;2023-02-15T07:37:05;12.07;;;8.50;;
50647;SDS011;36617;52.002;6.034;2023-02-15T07:39:30;11.60;;;8.60;;
50647;SDS011;36617;52.002;6.034;2023-02-15T07:41:55;11.37;;;8.13;;
50647;SDS011;36617;52.002;6.034;2023-02-15T07:44:21;11.27;;;8.07;;
50647;SDS011;36617;52.002;6.034;2023-02-15T07:46:46;11.17;;;7.70;;
50647;SDS011;36617;52.002;6.034;2023-02-15T07:49:11;10.87;;;7.80;;
50647;SDS011;36617;52.002;6.034;2023-02-15T07:51:36;10.75;;;7.15;;
50647;SDS011;36617;52.002;6.034;2023-02-15T07:54:01;11.37;;;7.60;;
50647;SDS011;36617;52.002;6.034;2023-02-15T07:56:27;9.80;;;7.13;;
50647;SDS011;36617;52.002;6.034;2023-02-15T07:58:52;10.10;;;7.03;;
50647;SDS011;36617;52.002;6.034;2023-02-15T08:01:18;11.53;;;7.23;;
50647;SDS011;36617;52.002;6.034;2023-02-15T08:03:44;9.50;;;6.80;;
50647;SDS011;36617;52.002;6.034;2023-02-15T08:06:09;9.27;;;6.70;;
50647;SDS011;36617;52.002;6.034;2023-02-15T08:08:36;9.45;;;6.80;;
50647;SDS011;36617;52.002;6.034;2023-02-15T08:11:07;8.63;;;6.20;;
50647;SDS011;36617;52.002;6.034;2023-02-15T08:14:00;9.70;;;6.53;;
50647;SDS011;36617;52.002;6.034;2023-02-15T08:18:52;8.93;;;6.40;;
50647;SDS011;36617;52.002;6.034;2023-02-15T08:21:19;9.38;;;6.80;;
50647;SDS011;36617;52.002;6.034;2023-02-15T08:23:44;9.90;;;6.60;;
50647;SDS011;36617;52.002;6.034;2023-02-15T08:26:09;9.83;;;6.50;;
50647;SDS011;36617;52.002;6.034;2023-02-15T08:28:35;9.20;;;6.00;;
50647;SDS011;36617;52.002;6.034;2023-02-15T08:31:04;8.68;;;5.78;;
50647;SDS011;36617;52.002;6.034;2023-02-15T08:33:29;9.43;;;6.40;;
50647;SDS011;36617;52.002;6.034;2023-02-15T08:35:55;9.40;;;6.40;;
50647;SDS011;36617;52.002;6.034;2023-02-15T08:38:20;8.60;;;6.37;;
50647;SDS011;36617;52.002;6.034;2023-02-15T08:40:45;8.77;;;6.23;;
50647;SDS011;36617;52.002;6.034;2023-02-15T08:43:11;9.57;;;6.30;;
50647;SDS011;36617;52.002;6.034;2023-02-15T08:45:36;9.27;;;6.60;;
50647;SDS011;36617;52.002;6.034;2023-02-15T08:48:01;10.93;;;6.80;;
50647;SDS011;36617;52.002;6.034;2023-02-15T08:50:26;10.30;;;6.70;;
50647;SDS011;36617;52.002;6.034;2023-02-15T08:52:51;11.00;;;7.00;;
50647;SDS011;36617;52.002;6.034;2023-02-15T08:55:16;11.60;;;7.43;;
50647;SDS011;36617;52.002;6.034;2023-02-15T08:57:43;13.27;;;7.40;;
50647;SDS011;36617;52.002;6.034;2023-02-15T09:00:10;9.82;;;7.10;;
50647;SDS011;36617;52.002;6.034;2023-02-15T09:02:36;11.57;;;7.40;;
50647;SDS011;36617;52.002;6.034;2023-02-15T09:05:01;10.98;;;7.40;;
50647;SDS011;36617;52.002;6.034;2023-02-15T09:07:27;10.03;;;7.03;;
50647;SDS011;36617;52.002;6.034;2023-02-15T09:09:53;11.10;;;7.25;;
50647;SDS011;36617;52.002;6.034;2023-02-15T09:12:19;10.45;;;7.13;;
50647;SDS011;36617;52.002;6.034;2023-02-15T09:14:44;10.93;;;6.80;;
50647;SDS011;36617;52.002;6.034;2023-02-15T09:17:09;10.07;;;7.40;;
50647;SDS011;36617;52.002;6.034;2023-02-15T09:19:34;10.50;;;7.07;;
50647;SDS011;36617;52.002;6.034;2023-02-15T09:21:59;11.33;;;7.37;;
50647;SDS011;36617;52.002;6.034;2023-02-15T09:24:25;11.23;;;7.50;;
50647;SDS011;36617;52.002;6.034;2023-02-15T09:26:50;10.27;;;6.90;;
50647;SDS011;36617;52.002;6.034;2023-02-15T09:29:16;10.43;;;6.80;;
50647;SDS011;36617;52.002;6.034;2023-02-15T09:31:44;9.82;;;6.75;;
50647;SDS011;36617;52.002;6.034;2023-02-15T09:34:10;10.27;;;6.60;;
50647;SDS011;36617;52.002;6.034;2023-02-15T09:36:36;11.68;;;6.53;;
50647;SDS011;36617;52.002;6.034;2023-02-15T09:39:21;10.63;;;6.65;;
50647;SDS011;36617;52.002;6.034;2023-02-15T09:57:13;9.93;;;6.55;;
50647;SDS011;36617;52.002;6.034;2023-02-15T10:04:50;10.40;;;6.40;;
50647;SDS011;36617;52.002;6.034;2023-02-15T10:26:12;8.53;;;6.20;;
50647;SDS011;36617;52.002;6.034;2023-02-15T10:28:19;9.43;;;6.00;;
50647;SDS011;36617;52.002;6.034;2023-02-15T10:30:48;8.57;;;6.15;;
50647;SDS011;36617;52.002;6.034;2023-02-15T10:38:30;9.43;;;5.93;;
50647;SDS011;36617;52.002;6.034;2023-02-15T10:41:12;8.70;;;6.33;;
50647;SDS011;36617;52.002;6.034;2023-02-15T10:46:12;9.10;;;6.00;;
50647;SDS011;36617;52.002;6.034;2023-02-15T10:51:15;8.95;;;6.05;;
50647;SDS011;36617;52.002;6.034;2023-02-15T10:53:52;8.38;;;6.10;;
50647;SDS011;36617;52.002;6.034;2023-02-15T10:56:24;8.23;;;5.93;;
50647;SDS011;36617;52.002;6.034;2023-02-15T11:06:39;8.00;;;6.00;;
50647;SDS011;36617;52.002;6.034;2023-02-15T11:09:10;8.18;;;5.90;;
50647;SDS011;36617;52.002;6.034;2023-02-15T11:11:37;8.20;;;5.97;;
50647;SDS011;36617;52.002;6.034;2023-02-15T11:14:14;8.52;;;5.65;;
50647;SDS011;36617;52.002;6.034;2023-02-15T11:16:44;7.45;;;5.35;;
50647;SDS011;36617;52.002;6.034;2023-02-15T11:21:45;7.60;;;5.70;;
50647;SDS011;36617;52.002;6.034;2023-02-15T11:24:16;7.88;;;5.72;;
50647;SDS011;36617;52.002;6.034;2023-02-15T11:26:48;8.27;;;5.68;;
50647;SDS011;36617;52.002;6.034;2023-02-15T11:31:43;7.38;;;5.43;;
50647;SDS011;36617;52.002;6.034;2023-02-15T11:34:15;7.75;;;5.60;;
50647;SDS011;36617;52.002;6.034;2023-02-15T11:36:42;7.72;;;5.72;;
50647;SDS011;36617;52.002;6.034;2023-02-15T11:39:12;8.05;;;5.30;;
50647;SDS011;36617;52.002;6.034;2023-02-15T11:41:40;7.03;;;5.30;;
50647;SDS011;36617;52.002;6.034;2023-02-15T11:46:37;7.63;;;5.43;;
50647;SDS011;36617;52.002;6.034;2023-02-15T11:49:07;7.05;;;5.25;;
50647;SDS011;36617;52.002;6.034;2023-02-15T11:51:33;7.43;;;5.13;;
50647;SDS011;36617;52.002;6.034;2023-02-15T11:53:59;7.43;;;5.23;;
50647;SDS011;36617;52.002;6.034;2023-02-15T11:56:27;6.93;;;5.03;;
50647;SDS011;36617;52.002;6.034;2023-02-15T11:59:12;6.90;;;5.00;;
50647;SDS011;36617;52.002;6.034;2023-02-15T12:01:43;6.97;;;5.00;;
50647;SDS011;36617;52.002;6.034;2023-02-15T12:06:34;7.43;;;5.28;;
50647;SDS011;36617;52.002;6.034;2023-02-15T12:09:05;7.15;;;4.78;;
50647;SDS011;36617;52.002;6.034;2023-02-15T12:11:33;6.97;;;4.95;;
50647;SDS011;36617;52.002;6.034;2023-02-15T12:14:00;7.13;;;5.20;;
50647;SDS011;36617;52.002;6.034;2023-02-15T12:16:26;6.80;;;4.90;;
50647;SDS011;36617;52.002;6.034;2023-02-15T12:18:53;7.43;;;4.70;;
50647;SDS011;36617;52.002;6.034;2023-02-15T12:23:51;6.85;;;5.13;;
50647;SDS011;36617;52.002;6.034;2023-02-15T12:26:24;7.22;;;5.15;;
50647;SDS011;36617;52.002;6.034;2023-02-15T12:28:50;6.80;;;5.10;;
50647;SDS011;36617;52.002;6.034;2023-02-15T12:31:27;8.43;;;5.20;;
50647;SDS011;36617;52.002;6.034;2023-02-15T12:33:53;6.93;;;5.00;;
50647;SDS011;36617;52.002;6.034;2023-02-15T12:36:20;6.63;;;4.78;;
50647;SDS011;36617;52.002;6.034;2023-02-15T12:41:27;6.88;;;5.00;;
50647;SDS011;36617;52.002;6.034;2023-02-15T12:44:03;7.27;;;5.00;;
50647;SDS011;36617;52.002;6.034;2023-02-15T12:46:28;6.50;;;4.80;;
50647;SDS011;36617;52.002;6.034;2023-02-15T12:49:36;7.10;;;5.17;;
50647;SDS011;36617;52.002;6.034;2023-02-15T12:51:55;7.07;;;5.10;;
50647;SDS011;36617;52.002;6.034;2023-02-15T12:54:26;6.97;;;4.88;;
50647;SDS011;36617;52.002;6.034;2023-02-15T12:56:52;6.97;;;4.97;;
50647;SDS011;36617;52.002;6.034;2023-02-15T12:59:18;7.13;;;4.90;;
50647;SDS011;36617;52.002;6.034;2023-02-15T13:01:47;6.82;;;4.90;;
50647;SDS011;36617;52.002;6.034;2023-02-15T13:04:20;6.97;;;5.03;;
50647;SDS011;36617;52.002;6.034;2023-02-15T13:06:47;6.45;;;4.75;;
50647;SDS011;36617;52.002;6.034;2023-02-15T13:11:42;7.38;;;4.95;;
50647;SDS011;36617;52.002;6.034;2023-02-15T13:16:41;7.20;;;5.10;;
50647;SDS011;36617;52.002;6.034;2023-02-15T13:21:39;7.00;;;5.00;;
50647;SDS011;36617;52.002;6.034;2023-02-15T13:24:10;6.88;;;4.97;;
50647;SDS011;36617;52.002;6.034;2023-02-15T13:26:40;6.78;;;5.00;;
50647;SDS011;36617;52.002;6.034;2023-02-15T13:29:12;6.88;;;5.07;;
50647;SDS011;36617;52.002;6.034;2023-02-15T13:31:40;6.70;;;4.70;;
50647;SDS011;36617;52.002;6.034;2023-02-15T13:34:09;6.80;;;4.97;;
50647;SDS011;36617;52.002;6.034;2023-02-15T13:39:24;7.70;;;5.13;;
50647;SDS011;36617;52.002;6.034;2023-02-15T13:42:13;7.63;;;5.22;;
50647;SDS011;36617;52.002;6.034;2023-02-15T13:44:50;7.30;;;5.07;;
50647;SDS011;36617;52.002;6.034;2023-02-15T13:47:22;7.78;;;5.00;;
50647;SDS011;36617;52.002;6.034;2023-02-15T13:50:13;7.10;;;5.00;;
50647;SDS011;36617;52.002;6.034;2023-02-15T13:52:46;7.22;;;5.20;;
50647;SDS011;36617;52.002;6.034;2023-02-15T13:58:33;6.80;;;4.90;;
50647;SDS011;36617;52.002;6.034;2023-02-15T14:01:04;6.55;;;4.80;;
50647;SDS011;36617;52.002;6.034;2023-02-15T14:03:42;7.60;;;5.00;;
50647;SDS011;36617;52.002;6.034;2023-02-15T14:14:23;7.43;;;5.03;;
50647;SDS011;36617;52.002;6.034;2023-02-15T14:19:39;7.25;;;5.20;;
50647;SDS011;36617;52.002;6.034;2023-02-15T14:22:16;7.10;;;5.25;;
50647;SDS011;36617;52.002;6.034;2023-02-15T14:27:19;7.00;;;5.10;;
50647;SDS011;36617;52.002;6.034;2023-02-15T14:29:49;7.57;;;5.40;;
50647;SDS011;36617;52.002;6.034;2023-02-15T14:32:20;7.67;;;5.20;;
50647;SDS011;36617;52.002;6.034;2023-02-15T14:34:52;8.30;;;5.22;;
50647;SDS011;36617;52.002;6.034;2023-02-15T14:37:19;7.72;;;5.28;;
50647;SDS011;36617;52.002;6.034;2023-02-15T14:40:01;7.15;;;5.25;;
50647;SDS011;36617;52.002;6.034;2023-02-15T14:42:51;7.35;;;5.22;;
50647;SDS011;36617;52.002;6.034;2023-02-15T14:45:34;7.80;;;5.22;;
50647;SDS011;36617;52.002;6.034;2023-02-15T14:55:39;7.18;;;5.10;;
50647;SDS011;36617;52.002;6.034;2023-02-15T14:58:09;7.90;;;5.37;;
50647;SDS011;36617;52.002;6.034;2023-02-15T15:00:38;7.68;;;5.70;;
50647;SDS011;36617;52.002;6.034;2023-02-15T15:03:25;7.80;;;5.38;;
50647;SDS011;36617;52.002;6.034;2023-02-15T15:05:51;7.63;;;5.50;;
50647;SDS011;36617;52.002;6.034;2023-02-15T15:08:26;7.30;;;5.40;;
50647;SDS011;36617;52.002;6.034;2023-02-15T15:10:52;8.48;;;5.70;;
50647;SDS011;36617;52.002;6.034;2023-02-15T15:15:55;8.03;;;5.50;;
50647;SDS011;36617;52.002;6.034;2023-02-15T15:21:06;7.93;;;5.30;;
50647;SDS011;36617;52.002;6.034;2023-02-15T15:23:39;7.43;;;5.60;;
50647;SDS011;36617;52.002;6.034;2023-02-15T15:26:21;7.70;;;5.37;;
50647;SDS011;36617;52.002;6.034;2023-02-15T15:31:29;7.95;;;5.65;;
50647;SDS011;36617;52.002;6.034;2023-02-15T15:34:05;7.80;;;5.68;;
50647;SDS011;36617;52.002;6.034;2023-02-15T15:36:45;8.65;;;5.88;;
50647;SDS011;36617;52.002;6.034;2023-02-15T15:44:47;7.57;;;5.55;;
50647;SDS011;36617;52.002;6.034;2023-02-15T15:49:53;8.20;;;5.72;;
50647;SDS011;36617;52.002;6.034;2023-02-15T15:52:20;7.78;;;5.43;;
50647;SDS011;36617;52.002;6.034;2023-02-15T15:54:46;8.75;;;6.10;;
50647;SDS011;36617;52.002;6.034;2023-02-15T15:57:19;8.20;;;6.10;;
50647;SDS011;36617;52.002;6.034;2023-02-15T15:59:46;8.77;;;6.13;;
50647;SDS011;36617;52.002;6.034;2023-02-15T16:02:16;9.05;;;6.22;;
50647;SDS011;36617;52.002;6.034;2023-02-15T16:04:42;8.20;;;6.07;;
50647;SDS011;36617;52.002;6.034;2023-02-15T16:09:52;8.18;;;6.00;;
50647;SDS011;36617;52.002;6.034;2023-02-15T16:12:18;7.55;;;5.75;;
50647;SDS011;36617;52.002;6.034;2023-02-15T16:14:44;9.00;;;6.10;;
50647;SDS011;36617;52.002;6.034;2023-02-15T16:17:15;9.27;;;6.20;;
50647;SDS011;36617;52.002;6.034;2023-02-15T16:19:42;8.70;;;6.20;;
50647;SDS011;36617;52.002;6.034;2023-02-15T16:22:10;8.60;;;6.35;;
50647;SDS011;36617;52.002;6.034;2023-02-15T16:27:19;8.65;;;6.50;;
50647;SDS011;36617;52.002;6.034;2023-02-15T16:29:47;9.37;;;6.20;;
50647;SDS011;36617;52.002;6.034;2023-02-15T16:37:16;8.93;;;6.55;;
50647;SDS011;36617;52.002;6.034;2023-02-15T16:39:42;8.90;;;6.50;;
50647;SDS011;36617;52.002;6.034;2023-02-15T16:42:08;8.70;;;6.60;;
50647;SDS011;36617;52.002;6.034;2023-02-15T16:44:34;9.45;;;6.60;;
50647;SDS011;36617;52.002;6.034;2023-02-15T16:46:59;9.33;;;6.87;;
50647;SDS011;36617;52.002;6.034;2023-02-15T16:49:26;8.93;;;6.22;;
50647;SDS011;36617;52.002;6.034;2023-02-15T16:51:56;9.60;;;6.78;;
50647;SDS011;36617;52.002;6.034;2023-02-15T16:54:22;9.20;;;6.60;;
50647;SDS011;36617;52.002;6.034;2023-02-15T16:56:48;8.85;;;6.45;;
50647;SDS011;36617;52.002;6.034;2023-02-15T16:59:19;9.53;;;7.00;;
50647;SDS011;36617;52.002;6.034;2023-02-15T17:01:46;9.07;;;6.70;;
50647;SDS011;36617;52.002;6.034;2023-02-15T17:09:29;9.45;;;6.65;;
50647;SDS011;36617;52.002;6.034;2023-02-15T17:11:55;9.90;;;7.27;;
50647;SDS011;36617;52.002;6.034;2023-02-15T17:14:21;9.30;;;6.70;;
50647;SDS011;36617;52.002;6.034;2023-02-15T17:16:47;9.55;;;7.15;;
50647;SDS011;36617;52.002;6.034;2023-02-15T17:21:42;9.63;;;7.33;;
50647;SDS011;36617;52.002;6.034;2023-02-15T17:24:15;10.52;;;7.68;;
50647;SDS011;36617;52.002;6.034;2023-02-15T17:26:41;9.98;;;7.63;;
50647;SDS011;36617;52.002;6.034;2023-02-15T17:31:50;10.13;;;7.70;;
50647;SDS011;36617;52.002;6.034;2023-02-15T17:36:59;10.00;;;7.30;;
50647;SDS011;36617;52.002;6.034;2023-02-15T17:39:26;10.13;;;7.50;;
50647;SDS011;36617;52.002;6.034;2023-02-15T17:41:52;10.43;;;7.60;;
50647;SDS011;36617;52.002;6.034;2023-02-15T17:44:17;10.37;;;7.77;;
50647;SDS011;36617;52.002;6.034;2023-02-15T17:46:43;10.20;;;8.03;;